CYOW/YOW METAR and TAF weather

Enter ICAO airport designator
Station Type Date Time Source
CYOW METAR 2020/03/29 20:00 UTC NOAA

CYOW 292000Z 07014KT 4SM -RA BR OVC005 05/04 A2965 RMK SC8 SLP045


Station Type Date Time Source
CYOW Decoded METAR 2020/03/29 20:00 UTC NOAA

Ottawa Int'L. Ont., Canada (CYOW) 45-19N 075-40W 114M
Mar 29, 2020 - 04:00 PM EDT / 2020.03.29 2000 UTC
Wind: from the ENE (070 degrees) at 16 MPH (14 KT):0
Visibility: 4 mile(s):0
Sky conditions: overcast
Weather: light rain; mist
Temperature: 41 F (5 C)
Dew Point: 39 F (4 C)
Relative Humidity: 93%
Pressure (altimeter): 29.65 in. Hg (1004 hPa)
ob: CYOW 292000Z 07014KT 4SM -RA BR OVC005 05/04 A2965 RMK SC8 SLP045
cycle: 20

Station Type Date Time Source
CYOW TAF 2020/03/29 21:42 UTC NOAA

TAF CYOW 292038Z 2921/3018 07012G22KT 2SM -SHRA BR OVC005
TEMPO 2921/2923 6SM -RA BR
FM292300 09015G25KT 3SM -SHRA BR OVC007
TEMPO 2923/3002 6SM BR
FM300200 19010KT 2SM -RA -DZ BR BKN006 OVC012
FM300600 22010G20KT P6SM -SHRA OVC015
BECMG 3006/3008 20008KT
FM301200 20008KT P6SM -SHRA SCT008 OVC015 PROB30 3012/3015 BKN008 OVC015
RMK NXT FCST BY 300000Z

Example: see airport list